createdAt,value
2022-11-21T00:00:43.843Z,155.00
2022-11-21T00:01:43.844Z,181.80
2022-11-21T00:02:43.828Z,176.40
2022-11-21T00:03:43.828Z,174.80
2022-11-21T00:04:43.811Z,153.50
2022-11-21T00:05:43.799Z,146.00
2022-11-21T00:06:43.791Z,149.10
2022-11-21T00:07:43.794Z,132.40
2022-11-21T00:08:43.783Z,119.30
2022-11-21T00:09:43.770Z,105.60
2022-11-21T00:10:44.759Z,126.20
2022-11-21T00:11:43.748Z,128.50
2022-11-21T00:12:43.743Z,101.90
2022-11-21T00:13:43.741Z,178.80
2022-11-21T00:14:43.726Z,155.20
2022-11-21T00:15:43.719Z,171.90
2022-11-21T00:16:43.705Z,179.10
2022-11-21T00:17:43.696Z,147.90
2022-11-21T00:18:43.702Z,173.40
2022-11-21T00:19:43.681Z,148.20
2022-11-21T00:20:43.674Z,142.10
2022-11-21T00:21:43.661Z,125.30
2022-11-21T00:22:43.657Z,115.60
2022-11-21T00:23:43.658Z,111.10
2022-11-21T00:24:43.636Z,102.70
2022-11-21T00:25:43.720Z,76.90
2022-11-21T00:26:43.619Z,77.60
2022-11-21T00:27:43.609Z,86.80
2022-11-21T00:28:43.616Z,105.90
2022-11-21T00:29:43.593Z,132.30
2022-11-21T00:30:43.587Z,114.80
2022-11-21T00:31:43.578Z,120.80
2022-11-21T00:32:43.571Z,125.30
2022-11-21T00:33:43.568Z,94.60
2022-11-21T00:34:43.560Z,112.10
2022-11-21T00:35:43.543Z,102.40
2022-11-21T00:36:43.532Z,117.00
2022-11-21T00:37:43.526Z,115.50
2022-11-21T00:38:43.525Z,106.10
2022-11-21T00:39:43.507Z,102.00
2022-11-21T00:40:43.503Z,115.70
2022-11-21T00:41:43.491Z,101.80
2022-11-21T00:42:43.479Z,105.40
2022-11-21T00:43:43.485Z,116.10
2022-11-21T00:44:43.463Z,129.20
2022-11-21T00:45:43.557Z,106.40
2022-11-21T00:46:43.502Z,102.60
2022-11-21T00:47:43.439Z,106.80
2022-11-21T00:48:43.438Z,97.50
2022-11-21T00:49:43.416Z,109.90
2022-11-21T00:50:43.410Z,106.10
2022-11-21T00:51:43.403Z,119.30
2022-11-21T00:52:43.390Z,91.50
2022-11-21T00:53:43.396Z,90.10
2022-11-21T00:54:43.375Z,102.10
2022-11-21T00:55:43.369Z,97.10
2022-11-21T00:56:43.360Z,98.00
2022-11-21T00:57:43.353Z,88.40
2022-11-21T00:58:43.358Z,99.40
2022-11-21T00:59:43.330Z,98.70
2022-11-21T01:00:43.379Z,85.10
2022-11-21T01:01:43.311Z,76.90
2022-11-21T01:02:43.301Z,80.70
2022-11-21T01:03:43.308Z,85.50
2022-11-21T01:04:43.295Z,66.80
2022-11-21T01:05:43.277Z,64.40
2022-11-21T01:06:43.260Z,66.90
2022-11-21T01:07:44.306Z,60.40
2022-11-21T01:08:43.270Z,47.40
2022-11-21T01:09:43.242Z,48.80
2022-11-21T01:10:43.237Z,38.60
2022-11-21T01:11:43.243Z,39.10
2022-11-21T01:12:43.220Z,31.10
2022-11-21T01:13:43.224Z,36.10
2022-11-21T01:14:43.195Z,35.40
2022-11-21T01:15:43.192Z,38.50
2022-11-21T01:16:43.187Z,38.60
2022-11-21T01:17:43.177Z,36.10
2022-11-21T01:18:43.179Z,35.10
2022-11-21T01:19:43.158Z,32.30
2022-11-21T01:21:15.054Z,35.30
2022-11-21T01:21:43.142Z,31.80
2022-11-21T01:22:43.132Z,40.80
2022-11-21T01:23:43.134Z,37.10
2022-11-21T01:24:43.115Z,38.00
2022-11-21T01:25:43.099Z,33.00
2022-11-21T01:26:44.097Z,38.90
2022-11-21T01:27:43.086Z,36.50
2022-11-21T01:28:43.091Z,38.70
2022-11-21T01:29:43.071Z,35.90
2022-11-21T01:30:43.060Z,43.80
2022-11-21T01:31:43.051Z,38.80
2022-11-21T01:32:43.042Z,34.70
2022-11-21T01:33:43.042Z,33.40
2022-11-21T01:34:43.025Z,36.40
2022-11-21T01:35:43.018Z,37.40
2022-11-21T01:36:43.008Z,36.90
2022-11-21T01:37:42.997Z,35.20
2022-11-21T01:38:42.988Z,31.00
2022-11-21T01:39:43.003Z,33.10
2022-11-21T01:40:42.973Z,32.10
2022-11-21T01:41:42.973Z,34.80
2022-11-21T01:42:42.956Z,25.50
2022-11-21T01:43:42.945Z,26.30
2022-11-21T01:44:42.945Z,28.50
2022-11-21T01:45:42.925Z,26.30
2022-11-21T01:46:42.916Z,22.60
2022-11-21T01:47:42.907Z,21.70
2022-11-21T01:48:42.895Z,15.00
2022-11-21T01:49:42.902Z,15.90
2022-11-21T01:50:42.882Z,16.90
2022-11-21T01:51:42.866Z,14.10
2022-11-21T01:52:42.864Z,17.30
2022-11-21T01:53:42.854Z,15.80
2022-11-21T01:54:42.849Z,13.40
2022-11-21T01:55:42.831Z,15.50
2022-11-21T01:56:42.827Z,20.50
2022-11-21T01:57:42.818Z,15.70
2022-11-21T01:58:42.807Z,15.50
2022-11-21T01:59:42.808Z,14.30
2022-11-21T02:00:42.822Z,16.00
2022-11-21T02:01:42.781Z,14.20
2022-11-21T02:02:42.774Z,14.20
2022-11-21T02:03:42.761Z,14.00
2022-11-21T02:04:42.767Z,18.80
2022-11-21T02:05:42.743Z,12.10
2022-11-21T02:06:42.737Z,13.50
2022-11-21T02:07:42.779Z,18.70
2022-11-21T02:08:42.719Z,13.00
2022-11-21T02:09:42.720Z,11.30
2022-11-21T02:10:42.698Z,15.10
2022-11-21T02:11:42.689Z,16.20
2022-11-21T02:12:42.686Z,17.70
2022-11-21T02:13:42.668Z,11.50
2022-11-21T02:14:42.673Z,11.50
2022-11-21T02:15:42.649Z,13.40
2022-11-21T02:16:42.646Z,13.40
2022-11-21T02:17:42.633Z,12.30
2022-11-21T02:18:42.626Z,11.50
2022-11-21T02:19:42.628Z,12.00
2022-11-21T02:20:42.605Z,10.60
2022-11-21T02:21:42.586Z,13.30
2022-11-21T02:22:43.585Z,14.70
2022-11-21T02:23:42.578Z,14.40
2022-11-21T02:24:42.583Z,17.40
2022-11-21T02:25:42.565Z,17.40
2022-11-21T02:26:42.552Z,15.40
2022-11-21T02:27:42.545Z,15.70
2022-11-21T02:28:42.537Z,15.20
2022-11-21T02:29:42.533Z,15.60
2022-11-21T02:30:42.516Z,15.20
2022-11-21T02:31:42.511Z,17.30
2022-11-21T02:32:42.497Z,15.60
2022-11-21T02:33:42.493Z,19.00
2022-11-21T02:34:42.496Z,19.00
2022-11-21T02:35:42.480Z,21.80
2022-11-21T02:36:42.468Z,16.50
2022-11-21T02:37:42.454Z,16.70
2022-11-21T02:38:42.445Z,15.70
2022-11-21T02:39:42.451Z,15.80
2022-11-21T02:40:42.432Z,12.30
2022-11-21T02:41:42.416Z,13.80
2022-11-21T02:42:42.415Z,14.30
2022-11-21T02:43:42.404Z,16.10
2022-11-21T02:44:42.405Z,12.90
2022-11-21T02:45:42.391Z,16.50
2022-11-21T02:46:42.376Z,15.00
2022-11-21T02:47:42.365Z,20.30
2022-11-21T02:48:42.433Z,16.20
2022-11-21T02:49:42.359Z,13.80
2022-11-21T02:50:42.342Z,15.90
2022-11-21T02:51:42.330Z,14.80
2022-11-21T02:52:42.319Z,17.60
2022-11-21T02:53:42.314Z,15.50
2022-11-21T02:54:42.314Z,13.00
2022-11-21T02:55:42.296Z,16.10
2022-11-21T02:56:42.285Z,16.70
2022-11-21T02:57:42.276Z,18.80
2022-11-21T02:58:42.263Z,14.30
2022-11-21T02:59:42.269Z,17.90
2022-11-21T03:00:42.309Z,16.50
2022-11-21T03:01:42.238Z,14.20
2022-11-21T03:02:42.228Z,14.70
2022-11-21T03:03:42.226Z,14.20
2022-11-21T03:04:42.223Z,14.80
2022-11-21T03:05:42.213Z,18.10
2022-11-21T03:06:42.193Z,21.40
2022-11-21T03:07:42.245Z,20.20
2022-11-21T03:08:42.182Z,22.20
2022-11-21T03:09:42.182Z,17.40
2022-11-21T03:10:42.158Z,17.70
2022-11-21T03:11:42.154Z,17.90
2022-11-21T03:12:42.149Z,19.80
2022-11-21T03:13:42.124Z,18.60
2022-11-21T03:14:43.133Z,22.90
2022-11-21T03:15:42.112Z,19.60
2022-11-21T03:16:42.105Z,25.10
2022-11-21T03:17:42.087Z,16.80
2022-11-21T03:18:42.085Z,14.30
2022-11-21T03:19:42.090Z,20.10
2022-11-21T03:20:42.073Z,19.50
2022-11-21T03:21:42.059Z,12.90
2022-11-21T03:22:42.052Z,14.60
2022-11-21T03:23:42.044Z,14.90
2022-11-21T03:24:42.042Z,14.80
2022-11-21T03:25:42.021Z,15.90
2022-11-21T03:26:42.016Z,15.00
2022-11-21T03:27:42.011Z,13.40
2022-11-21T03:28:41.998Z,17.80
2022-11-21T03:29:42.001Z,16.30
2022-11-21T03:30:41.974Z,20.50
2022-11-21T03:31:41.966Z,17.50
2022-11-21T03:32:41.954Z,22.70
2022-11-21T03:33:41.943Z,24.50
2022-11-21T03:34:41.950Z,25.90
2022-11-21T03:35:41.925Z,24.40
2022-11-21T03:36:41.923Z,21.50
2022-11-21T03:37:41.914Z,20.90
2022-11-21T03:38:41.901Z,21.60
2022-11-21T03:39:41.899Z,21.30
2022-11-21T03:40:42.884Z,21.10
2022-11-21T03:41:41.874Z,20.00
2022-11-21T03:42:41.865Z,17.90
2022-11-21T03:43:41.855Z,20.70
2022-11-21T03:44:41.856Z,20.60
2022-11-21T03:45:41.838Z,20.50
2022-11-21T03:46:41.825Z,20.40
2022-11-21T03:47:41.815Z,19.70
2022-11-21T03:48:41.809Z,26.70
2022-11-21T03:49:41.813Z,22.60
2022-11-21T03:50:41.792Z,23.70
2022-11-21T03:51:41.809Z,22.70
2022-11-21T03:52:41.778Z,23.40
2022-11-21T03:53:41.766Z,24.10
2022-11-21T03:54:41.766Z,23.10
2022-11-21T03:55:41.750Z,25.10
2022-11-21T03:56:41.742Z,26.60
2022-11-21T03:57:41.731Z,24.00
2022-11-21T03:58:41.722Z,25.60
2022-11-21T03:59:41.730Z,25.90
2022-11-21T04:00:41.705Z,22.40
2022-11-21T04:01:41.754Z,30.50
2022-11-21T04:02:41.688Z,32.00
2022-11-21T04:03:41.682Z,29.90
2022-11-21T04:04:41.684Z,27.60
2022-11-21T04:05:41.666Z,27.80
2022-11-21T04:06:41.656Z,23.70
2022-11-21T04:07:41.672Z,23.70
2022-11-21T04:08:41.640Z,25.90
2022-11-21T04:09:41.641Z,27.50
2022-11-21T04:10:41.619Z,27.20
2022-11-21T04:11:41.611Z,26.50
2022-11-21T04:12:41.601Z,24.90
2022-11-21T04:13:41.593Z,28.10
2022-11-21T04:14:41.598Z,29.50
2022-11-21T04:15:41.578Z,30.60
2022-11-21T04:16:41.561Z,28.10
2022-11-21T04:17:41.560Z,28.90
2022-11-21T04:18:41.547Z,24.20
2022-11-21T04:19:41.555Z,29.60
2022-11-21T04:20:41.533Z,28.10
2022-11-21T04:21:41.526Z,27.70
2022-11-21T04:22:41.557Z,25.80
2022-11-21T04:23:41.504Z,25.00
2022-11-21T04:24:41.566Z,26.20
2022-11-21T04:25:41.487Z,27.40
2022-11-21T04:26:41.481Z,26.30
2022-11-21T04:27:41.491Z,28.30
2022-11-21T04:28:41.464Z,26.80
2022-11-21T04:29:41.450Z,30.00
2022-11-21T04:30:41.456Z,28.30
2022-11-21T04:31:41.438Z,30.40
2022-11-21T04:32:41.430Z,29.30
2022-11-21T04:33:41.416Z,31.10
2022-11-21T04:34:41.415Z,26.40
2022-11-21T04:35:41.408Z,30.80
2022-11-21T04:36:41.452Z,26.90
2022-11-21T04:37:41.382Z,30.50
2022-11-21T04:38:41.373Z,26.60
2022-11-21T04:39:41.365Z,29.20
2022-11-21T04:40:41.367Z,29.10
2022-11-21T04:41:41.347Z,32.40
2022-11-21T04:42:41.336Z,31.00
2022-11-21T04:43:41.325Z,28.60
2022-11-21T04:44:41.318Z,27.10
2022-11-21T04:45:41.316Z,31.10
2022-11-21T04:46:41.299Z,30.70
2022-11-21T04:47:41.293Z,23.30
2022-11-21T04:48:41.282Z,24.40
2022-11-21T04:49:41.272Z,26.10
2022-11-21T04:50:41.273Z,27.30
2022-11-21T04:51:41.260Z,28.10
2022-11-21T04:52:41.248Z,26.60
2022-11-21T04:53:43.210Z,29.80
2022-11-21T04:54:42.228Z,26.80
2022-11-21T04:55:41.230Z,29.60
2022-11-21T04:56:41.198Z,28.30
2022-11-21T04:57:42.206Z,31.60
2022-11-21T04:58:41.195Z,26.60
2022-11-21T04:59:41.183Z,30.40
2022-11-21T05:00:41.188Z,30.90
2022-11-21T05:01:41.217Z,30.80
2022-11-21T05:02:41.162Z,30.50
2022-11-21T05:03:41.151Z,32.30
2022-11-21T05:04:41.149Z,38.20
2022-11-21T05:05:41.144Z,35.60
2022-11-21T05:06:41.120Z,31.70
2022-11-21T05:07:41.150Z,36.70
2022-11-21T05:08:41.101Z,34.10
2022-11-21T05:09:41.084Z,37.20
2022-11-21T05:10:42.094Z,37.20
2022-11-21T05:11:41.127Z,33.50
2022-11-21T05:12:41.069Z,34.00
2022-11-21T05:13:41.056Z,39.50
2022-11-21T05:14:41.052Z,30.40
2022-11-21T05:15:41.053Z,35.00
2022-11-21T05:16:41.035Z,27.20
2022-11-21T05:17:41.021Z,33.70
2022-11-21T05:18:41.014Z,27.30
2022-11-21T05:19:41.005Z,27.10
2022-11-21T05:20:41.008Z,28.80
2022-11-21T05:21:40.991Z,27.20
2022-11-21T05:22:41.004Z,25.30
2022-11-21T05:23:40.975Z,26.50
2022-11-21T05:24:40.971Z,24.60
2022-11-21T05:25:40.968Z,25.90
2022-11-21T05:26:40.945Z,25.00
2022-11-21T05:27:40.934Z,28.60
2022-11-21T05:28:40.924Z,27.20
2022-11-21T05:29:40.909Z,25.60
2022-11-21T05:30:40.917Z,27.20
2022-11-21T05:31:40.897Z,27.30
2022-11-21T05:32:40.886Z,26.30
2022-11-21T05:33:40.873Z,26.00
2022-11-21T05:34:40.869Z,25.40
2022-11-21T05:35:43.396Z,26.90
2022-11-21T05:36:41.848Z,27.00
2022-11-21T05:37:40.841Z,27.40
2022-11-21T05:38:40.830Z,24.40
2022-11-21T05:39:40.818Z,25.60
2022-11-21T05:40:40.820Z,26.90
2022-11-21T05:41:40.796Z,30.30
2022-11-21T05:42:40.788Z,28.50
2022-11-21T05:43:40.773Z,26.60
2022-11-21T05:44:40.769Z,30.40
2022-11-21T05:45:40.770Z,31.00
2022-11-21T05:46:40.752Z,36.40
2022-11-21T05:47:40.744Z,29.00
2022-11-21T05:48:40.740Z,33.40
2022-11-21T05:49:40.724Z,39.60
2022-11-21T05:50:40.727Z,35.50
2022-11-21T05:51:40.704Z,43.10
2022-11-21T05:52:40.702Z,41.10
2022-11-21T05:53:40.689Z,48.70
2022-11-21T05:54:45.036Z,34.80
2022-11-21T05:55:42.684Z,43.20
2022-11-21T05:56:40.663Z,41.50
2022-11-21T05:57:40.650Z,40.30
2022-11-21T05:58:40.650Z,46.70
2022-11-21T05:59:40.637Z,45.20
2022-11-21T06:00:40.640Z,44.30
2022-11-21T06:01:40.618Z,46.00
2022-11-21T06:02:40.662Z,41.20
2022-11-21T06:03:40.598Z,40.20
2022-11-21T06:04:40.590Z,41.50
2022-11-21T06:05:40.600Z,40.20
2022-11-21T06:06:40.578Z,49.40
2022-11-21T06:07:40.621Z,48.20
2022-11-21T06:08:40.556Z,39.70
2022-11-21T06:09:40.547Z,41.00
2022-11-21T06:10:40.552Z,40.60
2022-11-21T06:11:40.534Z,43.00
2022-11-21T06:12:40.526Z,48.00
2022-11-21T06:13:40.514Z,47.60
2022-11-21T06:14:40.504Z,44.90
2022-11-21T06:15:40.508Z,41.20
2022-11-21T06:16:40.488Z,39.00
2022-11-21T06:17:40.479Z,34.50
2022-11-21T06:18:40.470Z,33.60
2022-11-21T06:19:40.460Z,34.70
2022-11-21T06:20:40.460Z,35.10
2022-11-21T06:21:40.446Z,32.50
2022-11-21T06:22:40.435Z,36.80
2022-11-21T06:23:40.427Z,34.80
2022-11-21T06:24:40.414Z,36.00
2022-11-21T06:25:40.420Z,35.80
2022-11-21T06:26:40.396Z,38.10
2022-11-21T06:27:40.387Z,40.60
2022-11-21T06:28:40.382Z,54.30
2022-11-21T06:29:40.375Z,55.70
2022-11-21T06:30:40.372Z,43.40
2022-11-21T06:31:40.353Z,51.20
2022-11-21T06:32:40.413Z,61.20
2022-11-21T06:33:40.341Z,58.30
2022-11-21T06:34:40.340Z,56.80
2022-11-21T06:35:40.331Z,54.20
2022-11-21T06:36:40.307Z,56.10
2022-11-21T06:37:40.301Z,53.70
2022-11-21T06:38:40.292Z,60.10
2022-11-21T06:39:40.282Z,56.40
2022-11-21T06:40:40.283Z,47.20
2022-11-21T06:41:40.266Z,56.20
2022-11-21T06:42:40.267Z,49.20
2022-11-21T06:43:40.249Z,51.30
2022-11-21T06:44:40.237Z,67.20
2022-11-21T06:45:40.238Z,50.70
2022-11-21T06:46:40.224Z,51.60
2022-11-21T06:47:40.207Z,48.40
2022-11-21T06:48:40.198Z,44.30
2022-11-21T06:49:40.194Z,58.50
2022-11-21T06:50:40.200Z,64.10
2022-11-21T06:51:40.178Z,53.20
2022-11-21T06:52:40.170Z,57.40
2022-11-21T06:53:40.240Z,52.50
2022-11-21T06:54:40.151Z,47.80
2022-11-21T06:55:40.153Z,50.30
2022-11-21T06:56:40.132Z,49.60
2022-11-21T06:57:40.129Z,57.70
2022-11-21T06:58:40.115Z,56.30
2022-11-21T06:59:40.102Z,63.20
2022-11-21T07:00:40.117Z,60.60
2022-11-21T07:01:40.134Z,63.50
2022-11-21T07:02:40.080Z,58.70
2022-11-21T07:03:40.067Z,71.20
2022-11-21T07:04:40.065Z,50.10
2022-11-21T07:05:40.063Z,58.00
2022-11-21T07:06:40.046Z,57.50
2022-11-21T07:07:40.084Z,58.00
2022-11-21T07:08:40.033Z,71.70
2022-11-21T07:09:40.029Z,77.70
2022-11-21T07:10:42.553Z,80.00
2022-11-21T07:11:41.008Z,72.60
2022-11-21T07:12:40.015Z,91.30
2022-11-21T07:13:39.987Z,90.20
2022-11-21T07:14:39.977Z,115.50
2022-11-21T07:15:39.989Z,100.70
2022-11-21T07:16:39.960Z,105.90
2022-11-21T07:17:39.949Z,97.70
2022-11-21T07:18:39.946Z,117.80
2022-11-21T07:19:41.149Z,110.90
2022-11-21T07:21:11.847Z,128.20
2022-11-21T07:21:39.919Z,135.40
2022-11-21T07:22:39.913Z,121.70
2022-11-21T07:23:39.906Z,99.40
2022-11-21T07:24:39.890Z,101.30
2022-11-21T07:25:39.895Z,124.10
2022-11-21T07:26:39.877Z,123.10
2022-11-21T07:27:39.867Z,126.30
2022-11-21T07:28:39.862Z,127.60
2022-11-21T07:29:39.854Z,120.50
2022-11-21T07:30:39.838Z,140.80
2022-11-21T07:31:39.842Z,143.00
2022-11-21T07:32:39.825Z,132.60
2022-11-21T07:33:39.847Z,114.70
2022-11-21T07:34:39.813Z,121.40
2022-11-21T07:35:39.813Z,119.30
2022-11-21T07:36:39.792Z,141.50
2022-11-21T07:37:39.781Z,166.10
2022-11-21T07:38:39.772Z,138.50
2022-11-21T07:39:39.929Z,124.40
2022-11-21T07:40:39.757Z,161.00
2022-11-21T07:41:39.754Z,139.60
2022-11-21T07:42:39.736Z,147.20
2022-11-21T07:43:39.736Z,121.20
2022-11-21T07:44:39.736Z,157.40
2022-11-21T07:45:39.744Z,141.00
2022-11-21T07:46:39.701Z,144.80
2022-11-21T07:47:39.691Z,128.70
2022-11-21T07:48:39.688Z,129.60
2022-11-21T07:49:39.684Z,131.40
2022-11-21T07:50:39.671Z,117.90
2022-11-21T07:51:39.670Z,138.60
2022-11-21T07:52:39.652Z,130.00
2022-11-21T07:53:39.646Z,141.30
2022-11-21T07:54:39.637Z,116.30
2022-11-21T07:55:41.038Z,125.30
2022-11-21T07:56:40.633Z,101.20
2022-11-21T07:57:39.616Z,124.60
2022-11-21T07:58:39.606Z,129.90
2022-11-21T07:59:39.595Z,127.70
2022-11-21T08:00:39.594Z,128.80
2022-11-21T08:01:45.013Z,116.10
2022-11-21T08:02:41.575Z,128.00
2022-11-21T08:03:39.564Z,114.40
2022-11-21T08:04:39.560Z,109.80
2022-11-21T08:05:39.551Z,118.20
2022-11-21T08:06:39.553Z,107.90
2022-11-21T08:07:39.569Z,113.40
2022-11-21T08:08:39.540Z,111.10
2022-11-21T08:09:39.929Z,123.50
2022-11-21T08:10:40.506Z,118.00
2022-11-21T08:11:39.511Z,108.70
2022-11-21T08:12:39.506Z,105.90
2022-11-21T08:13:39.487Z,104.30
2022-11-21T08:14:39.479Z,119.60
2022-11-21T08:15:39.471Z,129.90
2022-11-21T08:16:39.476Z,116.60
2022-11-21T08:17:39.457Z,101.30
2022-11-21T08:18:39.448Z,140.80
2022-11-21T08:19:39.442Z,118.90
2022-11-21T08:20:39.425Z,111.70
2022-11-21T08:21:39.427Z,111.40
2022-11-21T08:22:39.407Z,113.10
2022-11-21T08:23:39.398Z,103.50
2022-11-21T08:24:39.393Z,127.60
2022-11-21T08:25:39.386Z,108.90
2022-11-21T08:26:39.385Z,90.10
2022-11-21T08:27:39.367Z,88.70
2022-11-21T08:28:39.358Z,87.70
2022-11-21T08:29:39.351Z,92.10
2022-11-21T08:30:39.339Z,91.70
2022-11-21T08:31:39.340Z,93.70
2022-11-21T08:32:39.327Z,111.80
2022-11-21T08:33:39.314Z,88.50
2022-11-21T08:34:39.308Z,92.10
2022-11-21T08:35:39.298Z,96.90
2022-11-21T08:36:39.321Z,119.00
2022-11-21T08:37:39.279Z,102.80
2022-11-21T08:38:39.271Z,98.50
2022-11-21T08:39:39.261Z,98.10
2022-11-21T08:40:39.311Z,94.50
2022-11-21T08:41:39.255Z,95.80
2022-11-21T08:42:39.234Z,80.30
2022-11-21T08:43:39.228Z,89.20
2022-11-21T08:44:39.222Z,90.90
2022-11-21T08:45:39.213Z,80.80
2022-11-21T08:46:39.208Z,75.20
2022-11-21T08:47:39.187Z,76.60
2022-11-21T08:48:39.190Z,77.40
2022-11-21T08:49:39.173Z,86.70
2022-11-21T08:50:39.175Z,88.40
2022-11-21T08:51:39.168Z,81.50
2022-11-21T08:52:39.152Z,85.90
2022-11-21T08:53:39.138Z,79.40
2022-11-21T08:54:39.127Z,113.10
2022-11-21T08:55:39.123Z,107.60
2022-11-21T08:56:39.126Z,104.80
2022-11-21T08:57:39.159Z,105.40
2022-11-21T08:58:39.089Z,115.60
2022-11-21T08:59:39.085Z,100.00
2022-11-21T09:00:39.075Z,96.70
2022-11-21T09:01:39.151Z,96.70
2022-11-21T09:02:39.056Z,102.80
2022-11-21T09:03:39.044Z,94.20
2022-11-21T09:04:39.051Z,86.70
2022-11-21T09:05:39.033Z,86.30
2022-11-21T09:06:39.031Z,86.10
2022-11-21T09:07:39.050Z,98.40
2022-11-21T09:08:39.009Z,92.10
2022-11-21T09:09:38.999Z,89.70
2022-11-21T09:10:38.986Z,86.10
2022-11-21T09:11:38.995Z,100.10
2022-11-21T09:12:38.966Z,102.60
2022-11-21T09:13:38.963Z,100.90
2022-11-21T09:14:38.959Z,97.70
2022-11-21T09:15:38.943Z,93.30
2022-11-21T09:16:39.935Z,115.30
2022-11-21T09:17:39.949Z,122.30
2022-11-21T09:18:38.917Z,115.10
2022-11-21T09:19:38.907Z,141.60
2022-11-21T09:20:38.938Z,109.40
2022-11-21T09:21:38.905Z,87.60
2022-11-21T09:22:38.883Z,110.60
2022-11-21T09:23:38.875Z,100.30
2022-11-21T09:24:38.896Z,95.00
2022-11-21T09:25:38.856Z,107.50
2022-11-21T09:26:38.863Z,148.60
2022-11-21T09:27:38.860Z,167.50
2022-11-21T09:28:38.855Z,169.70
2022-11-21T09:29:38.821Z,144.00
2022-11-21T09:30:38.810Z,112.60
2022-11-21T09:31:38.809Z,102.20
2022-11-21T09:32:39.795Z,117.20
2022-11-21T09:33:38.788Z,101.00
2022-11-21T09:34:38.782Z,123.20
2022-11-21T09:35:38.773Z,107.50
2022-11-21T09:36:38.769Z,122.40
2022-11-21T09:37:38.750Z,134.50
2022-11-21T09:38:38.741Z,125.30
2022-11-21T09:39:38.735Z,112.90
2022-11-21T09:40:38.728Z,90.20
2022-11-21T09:41:38.733Z,100.10
2022-11-21T09:42:38.710Z,117.50
2022-11-21T09:43:38.700Z,89.10
2022-11-21T09:44:38.696Z,92.10
2022-11-21T09:45:38.685Z,88.10
2022-11-21T09:46:38.684Z,91.40
2022-11-21T09:47:38.666Z,106.20
2022-11-21T09:48:38.656Z,105.50
2022-11-21T09:49:38.651Z,93.40
2022-11-21T09:50:38.651Z,89.70
2022-11-21T09:51:38.644Z,128.80
2022-11-21T09:52:38.626Z,108.10
2022-11-21T09:53:38.614Z,85.20
2022-11-21T09:54:38.606Z,89.80
2022-11-21T09:55:38.593Z,93.50
2022-11-21T09:56:38.599Z,96.70
2022-11-21T09:57:38.576Z,137.10
2022-11-21T09:58:38.571Z,97.60
2022-11-21T09:59:38.563Z,133.90
2022-11-21T10:00:39.124Z,94.50
2022-11-21T10:01:38.562Z,79.80
2022-11-21T10:02:38.539Z,75.20
2022-11-21T10:03:38.530Z,76.80
2022-11-21T10:04:38.519Z,71.60
2022-11-21T10:05:38.532Z,74.00
2022-11-21T10:06:38.526Z,85.00
2022-11-21T10:07:38.588Z,87.20
2022-11-21T10:08:38.505Z,77.20
2022-11-21T10:09:38.520Z,78.40
2022-11-21T10:10:38.464Z,75.90
2022-11-21T10:11:38.477Z,66.80
2022-11-21T10:12:38.454Z,58.20
2022-11-21T10:13:38.440Z,59.50
2022-11-21T10:14:38.487Z,55.80
2022-11-21T10:15:38.427Z,61.70
2022-11-21T10:16:42.013Z,55.40
2022-11-21T10:17:39.409Z,57.80
2022-11-21T10:18:38.401Z,56.20
2022-11-21T10:19:38.390Z,59.40
2022-11-21T10:20:38.385Z,79.10
2022-11-21T10:21:38.386Z,77.90
2022-11-21T10:22:38.366Z,70.60
2022-11-21T10:23:38.356Z,82.30
2022-11-21T10:24:38.348Z,74.70
2022-11-21T10:25:38.339Z,67.30
2022-11-21T10:26:38.346Z,62.60
2022-11-21T10:27:38.325Z,85.20
2022-11-21T10:28:38.317Z,84.10
2022-11-21T10:29:38.312Z,77.70
2022-11-21T10:30:38.300Z,75.00
2022-11-21T10:31:38.305Z,77.30
2022-11-21T10:33:11.248Z,85.70
2022-11-21T10:34:11.241Z,77.60
2022-11-21T10:35:11.233Z,68.40
2022-11-21T10:36:11.235Z,72.90
2022-11-21T10:37:11.991Z,69.00
2022-11-21T10:38:11.205Z,81.50
2022-11-21T10:39:11.200Z,110.50
2022-11-21T10:40:11.186Z,89.20
2022-11-21T10:41:11.186Z,87.40
2022-11-21T10:42:11.174Z,85.60
2022-11-21T10:43:11.156Z,92.50
2022-11-21T10:44:11.150Z,81.90
2022-11-21T10:45:11.137Z,87.80
2022-11-21T10:46:11.136Z,82.40
2022-11-21T10:47:11.133Z,80.80
2022-11-21T10:48:11.156Z,79.30
2022-11-21T10:49:11.113Z,81.30
2022-11-21T10:50:11.101Z,80.70
2022-11-21T10:51:11.086Z,77.00
2022-11-21T10:52:11.091Z,81.10
2022-11-21T10:53:11.070Z,76.60
2022-11-21T10:54:11.068Z,76.10
2022-11-21T10:55:11.058Z,76.30
2022-11-21T10:56:11.050Z,89.50
2022-11-21T10:57:11.049Z,94.00
2022-11-21T10:58:11.046Z,97.20
2022-11-21T10:59:11.025Z,82.90
2022-11-21T11:00:11.015Z,84.30
2022-11-21T11:01:11.068Z,85.90
2022-11-21T11:02:11.010Z,84.20
2022-11-21T11:03:10.993Z,85.60
2022-11-21T11:04:27.444Z,88.40
2022-11-21T11:05:11.974Z,78.70
2022-11-21T11:06:10.968Z,116.80
2022-11-21T11:07:11.008Z,90.10
2022-11-21T11:08:10.949Z,93.30
2022-11-21T11:09:10.939Z,83.10
2022-11-21T11:10:10.928Z,75.50
2022-11-21T11:11:10.916Z,72.60
2022-11-21T11:12:10.920Z,86.50
2022-11-21T11:13:30.698Z,96.30
2022-11-21T11:14:11.893Z,82.80
2022-11-21T11:15:10.880Z,90.60
2022-11-21T11:16:10.877Z,87.40
2022-11-21T11:17:10.873Z,86.00
2022-11-21T11:18:10.858Z,79.20
2022-11-21T11:19:10.844Z,75.00
2022-11-21T11:20:10.837Z,88.00
2022-11-21T11:21:10.828Z,76.50
2022-11-21T11:22:10.830Z,75.70
2022-11-21T11:23:10.808Z,77.60
2022-11-21T11:24:10.822Z,72.60
2022-11-21T11:25:10.791Z,71.90
2022-11-21T11:26:10.789Z,71.80
2022-11-21T11:27:10.796Z,61.40
2022-11-21T11:28:10.768Z,69.10
2022-11-21T11:29:10.759Z,58.00
2022-11-21T11:30:10.750Z,64.60
2022-11-21T11:31:10.740Z,54.30
2022-11-21T11:32:10.747Z,49.80
2022-11-21T11:33:10.720Z,43.00
2022-11-21T11:34:10.746Z,47.70
2022-11-21T11:35:10.704Z,43.70
2022-11-21T11:36:10.697Z,43.60
2022-11-21T11:37:10.700Z,49.80
2022-11-21T11:38:10.682Z,46.90
2022-11-21T11:39:10.669Z,47.20
2022-11-21T11:40:10.666Z,45.60
2022-11-21T11:41:10.652Z,50.80
2022-11-21T11:42:16.407Z,55.20
2022-11-21T11:43:11.636Z,52.80
2022-11-21T11:44:10.630Z,48.00
2022-11-21T11:45:10.618Z,46.90
2022-11-21T11:46:10.610Z,34.60
2022-11-21T11:47:10.609Z,39.50
2022-11-21T11:48:10.595Z,35.30
2022-11-21T11:49:20.152Z,39.10
2022-11-21T11:50:11.597Z,36.70
2022-11-21T11:51:10.568Z,39.50
2022-11-21T11:52:10.566Z,36.60
2022-11-21T11:53:10.551Z,36.80
2022-11-21T11:54:10.540Z,36.10
2022-11-21T11:55:10.535Z,37.30
2022-11-21T11:56:10.521Z,33.40
2022-11-21T11:57:10.659Z,38.70
2022-11-21T11:58:10.505Z,36.50
2022-11-21T11:59:10.503Z,33.40
2022-11-21T12:00:10.491Z,33.40
2022-11-21T12:01:10.484Z,32.80
2022-11-21T12:02:12.147Z,31.30
2022-11-21T12:03:10.469Z,28.50
2022-11-21T12:04:10.457Z,29.60
2022-11-21T12:05:10.446Z,28.50
2022-11-21T12:06:10.442Z,33.20
2022-11-21T12:09:11.459Z,36.80
2022-11-21T12:10:10.400Z,33.50
2022-11-21T12:11:10.396Z,33.00
2022-11-21T12:12:10.394Z,32.60
2022-11-21T12:13:10.376Z,30.10
2022-11-21T12:14:10.364Z,28.20
2022-11-21T12:15:10.360Z,29.20
2022-11-21T12:16:13.644Z,27.00
2022-11-21T12:17:10.394Z,24.10
2022-11-21T12:18:10.340Z,29.20
2022-11-21T12:19:10.331Z,29.90
2022-11-21T12:20:11.436Z,29.30
2022-11-21T12:21:11.426Z,33.10
2022-11-21T12:22:11.458Z,28.30
2022-11-21T12:23:11.443Z,30.50
2022-11-21T12:24:11.400Z,28.60
2022-11-21T12:25:11.394Z,26.50
2022-11-21T12:26:11.387Z,27.40
2022-11-21T12:27:11.386Z,22.50
2022-11-21T12:28:11.383Z,19.40
2022-11-21T12:29:11.359Z,17.70
2022-11-21T12:30:11.353Z,18.50
2022-11-21T12:31:11.350Z,17.50
2022-11-21T12:32:11.350Z,15.10
2022-11-21T12:33:11.326Z,18.90
2022-11-21T12:34:11.329Z,20.20
2022-11-21T12:35:11.348Z,18.50
2022-11-21T12:36:17.818Z,17.70
2022-11-21T12:37:13.317Z,16.40
2022-11-21T12:38:11.288Z,17.00
2022-11-21T12:39:11.300Z,16.30
2022-11-21T12:40:11.272Z,16.50
2022-11-21T12:41:11.343Z,17.20
2022-11-21T12:42:11.267Z,16.80
2022-11-21T12:43:11.244Z,15.70
2022-11-21T12:44:11.233Z,16.70
2022-11-21T12:45:11.268Z,17.60
2022-11-21T12:46:11.219Z,22.00
2022-11-21T12:47:11.223Z,17.20
2022-11-21T12:48:11.202Z,18.60
2022-11-21T12:49:11.193Z,18.60
2022-11-21T12:50:11.209Z,21.30